Jefferson, NH (03583)

9:31 AM EST on February 10, 2016 (GMT -0500)
Kilkenny View Rd | | Change Station
CLOSE
Current Station
Personal Weather Station
Location: Jefferson, NH
Elevation: 1093 ft
Nearby Weather Stations

Elev 1093 ft 44.44 °N, 71.51 °W | Updated 2 minutes ago

Snow
Snow
25.1 °F
Feels Like 25 °F
N
0.0
Wind Variable Wind from SSW
Gusts 2.0 mph

Today
High -- | Low -- °F
--% Chance of Precip.
Yesterday
High -- | Low -- °F
Precip. -- in
Pressure 29.50 in
Visibility 3.0 miles
Clouds Overcast 4000 ft
Windchill 25 °F
Dew Point 21 °F
Humidity 84%
Rainfall 0.00 in
Snow Depth Not available.
6:53 AM 5:07 PM
Waxing Crescent, 5% visible
SPECI KHIE 101424Z AUTO 08003KT 3SM -SN OVC040 M04/M07 A2950 RMK AO2 P0000 T10441072
Pressure 29.50 in
Visibility 3.0 miles
Clouds Overcast 4000 ft
Windchill 25 °F
Dew Point 21 °F
Humidity 84%
Rainfall 0.00 in
Snow Depth Not available.
6:53 AM 5:07 PM
Waxing Crescent, 5% visible
SPECI KHIE 101424Z AUTO 08003KT 3SM -SN OVC040 M04/M07 A2950 RMK AO2 P0000 T10441072

10-Day Weather Forecast

Almanac

Astronomy

Feb. 10, 2016 Rise Set
Actual Time
Civil Twilight
Nautical Twilight
Astronomical Twilight
Moon
Length of Visible Light
Length of Day
Tomorrow will be .
, % of the Moon is Illuminated

Today's Extremes

State Highs State Lows

Community

WunderPhotos

Upload Photos

1,891,855 photos uploaded!

WunderBlog® & News

Nearby

Air Quality

  Air Quality AQ Index Pollutant
Not available.

Snow Depth

Station Depth Elevation

Earthquake Activity

City Distance Mag. Time & Date
Minimum magnitude displayed is 2.5.

Coastal Water Temperatures

Place Temperature

Stations

Nearby Weather Stations

Station Location Temp. Windchill Dew Point Humidity Wind Precip. Elev Updated Type
                   

Watches & Warnings

There are currently no watches in effect.